createdAt,value
2023-01-22T00:01:13.133Z,1.90
2023-01-22T00:03:41.029Z,2.10
2023-01-22T00:06:09.278Z,2.10
2023-01-22T00:08:36.632Z,2.20
2023-01-22T00:11:04.224Z,2.10
2023-01-22T00:13:31.613Z,2.20
2023-01-22T00:15:59.495Z,2.30
2023-01-22T00:18:26.959Z,2.30
2023-01-22T00:20:55.356Z,2.30
2023-01-22T00:23:23.499Z,2.40
2023-01-22T00:25:51.053Z,2.50
2023-01-22T00:28:18.367Z,2.40
2023-01-22T00:30:45.815Z,2.40
2023-01-22T00:33:13.115Z,2.50
2023-01-22T00:35:40.488Z,2.40
2023-01-22T00:38:07.917Z,2.50
2023-01-22T00:40:35.314Z,2.60
2023-01-22T00:43:02.876Z,2.60
2023-01-22T00:45:31.071Z,2.70
2023-01-22T00:47:58.600Z,2.60
2023-01-22T00:50:26.390Z,2.50
2023-01-22T00:52:53.875Z,2.40
2023-01-22T00:55:21.382Z,2.30
2023-01-22T00:57:48.972Z,2.30
2023-01-22T01:00:18.935Z,2.40
2023-01-22T01:03:05.068Z,2.50
2023-01-22T01:05:32.408Z,2.50
2023-01-22T01:08:00.176Z,2.50
2023-01-22T01:10:27.892Z,2.50
2023-01-22T01:12:55.408Z,2.40
2023-01-22T01:15:22.692Z,2.40
2023-01-22T01:17:50.152Z,2.50
2023-01-22T01:20:17.735Z,2.40
2023-01-22T01:22:45.424Z,2.40
2023-01-22T01:25:12.878Z,2.40
2023-01-22T01:27:39.943Z,2.50
2023-01-22T01:30:07.879Z,2.40
2023-01-22T01:32:35.040Z,2.20
2023-01-22T01:35:02.107Z,2.10
2023-01-22T01:37:29.207Z,2.20
2023-01-22T01:39:56.375Z,2.20
2023-01-22T01:42:29.565Z,2.30
2023-01-22T01:45:15.401Z,2.20
2023-01-22T01:47:42.956Z,2.20
2023-01-22T01:50:10.237Z,2.20
2023-01-22T01:52:37.318Z,2.10
2023-01-22T01:55:04.711Z,2.10
2023-01-22T01:57:33.347Z,2.20
2023-01-22T02:00:01.024Z,2.10
2023-01-22T02:02:28.233Z,2.10
2023-01-22T02:04:55.630Z,2.00
2023-01-22T02:07:40.768Z,2.00
2023-01-22T02:10:07.831Z,2.10
2023-01-22T02:12:34.907Z,2.00
2023-01-22T02:15:04.100Z,2.00
2023-01-22T02:17:31.319Z,2.00
2023-01-22T02:19:58.263Z,2.00
2023-01-22T02:22:32.708Z,2.00
2023-01-22T02:24:59.741Z,1.90
2023-01-22T02:27:26.704Z,1.90
2023-01-22T02:29:53.726Z,1.90
2023-01-22T02:32:20.671Z,1.90
2023-01-22T02:34:47.664Z,1.80
2023-01-22T02:37:14.710Z,1.90
2023-01-22T02:39:41.718Z,1.90
2023-01-22T02:42:09.081Z,1.90
2023-01-22T02:44:35.999Z,1.80
2023-01-22T02:47:03.109Z,1.80
2023-01-22T02:49:29.996Z,1.80
2023-01-22T02:51:56.875Z,1.90
2023-01-22T02:54:23.780Z,1.90
2023-01-22T02:56:50.630Z,2.00
2023-01-22T02:59:17.566Z,2.00
2023-01-22T03:01:44.616Z,2.00
2023-01-22T03:04:11.486Z,2.10
2023-01-22T03:06:45.982Z,2.10
2023-01-22T03:09:14.523Z,2.00
2023-01-22T03:11:41.924Z,2.00
2023-01-22T03:14:27.574Z,1.90
2023-01-22T03:17:13.783Z,1.90
2023-01-22T03:19:59.108Z,1.90
2023-01-22T03:22:26.983Z,1.90
2023-01-22T03:24:54.075Z,1.90
2023-01-22T03:27:22.371Z,1.90
2023-01-22T03:29:49.746Z,1.90
2023-01-22T03:32:19.276Z,1.90
2023-01-22T03:34:46.279Z,1.80
2023-01-22T03:37:13.426Z,1.70
2023-01-22T03:39:41.003Z,1.70
2023-01-22T03:42:08.262Z,1.80
2023-01-22T03:44:35.235Z,1.80
2023-01-22T03:47:02.290Z,1.70
2023-01-22T03:49:29.191Z,1.70
2023-01-22T03:51:56.661Z,1.60
2023-01-22T03:54:23.650Z,1.60
2023-01-22T03:56:50.580Z,1.60
2023-01-22T03:59:17.650Z,1.60
2023-01-22T04:01:44.661Z,1.70
2023-01-22T04:04:11.619Z,1.70
2023-01-22T04:06:38.770Z,1.70
2023-01-22T04:09:05.702Z,1.70
2023-01-22T04:11:32.733Z,1.70
2023-01-22T04:13:59.693Z,1.60
2023-01-22T04:16:26.700Z,1.60
2023-01-22T04:18:53.580Z,1.70
2023-01-22T04:21:20.489Z,1.70
2023-01-22T04:23:47.803Z,1.70
2023-01-22T04:26:14.903Z,1.70
2023-01-22T04:28:42.029Z,1.70
2023-01-22T04:31:10.324Z,1.70
2023-01-22T04:33:37.418Z,1.70
2023-01-22T04:36:04.556Z,1.70
2023-01-22T04:38:31.563Z,1.70
2023-01-22T04:40:58.538Z,1.70
2023-01-22T04:43:25.481Z,1.70
2023-01-22T04:45:52.489Z,1.60
2023-01-22T04:48:22.485Z,1.60
2023-01-22T04:50:49.416Z,1.60
2023-01-22T04:53:16.508Z,1.70
2023-01-22T04:55:43.817Z,1.60
2023-01-22T04:58:10.715Z,1.60
2023-01-22T05:00:37.687Z,1.60
2023-01-22T05:03:05.116Z,1.60
2023-01-22T05:05:33.319Z,1.60
2023-01-22T05:08:00.747Z,1.50
2023-01-22T05:10:28.037Z,1.50
2023-01-22T05:12:55.230Z,1.50
2023-01-22T05:15:24.717Z,1.40
2023-01-22T05:17:52.769Z,1.40
2023-01-22T05:20:20.366Z,1.40
2023-01-22T05:22:47.546Z,1.30
2023-01-22T05:25:14.492Z,1.30
2023-01-22T05:27:41.592Z,1.40
2023-01-22T05:30:09.271Z,1.40
2023-01-22T05:32:36.215Z,1.40
2023-01-22T05:35:03.412Z,1.40
2023-01-22T05:37:31.339Z,1.30
2023-01-22T05:39:58.282Z,1.40
2023-01-22T05:42:25.338Z,1.30
2023-01-22T05:44:52.318Z,1.30
2023-01-22T05:47:19.256Z,1.30
2023-01-22T05:49:46.170Z,1.30
2023-01-22T05:52:13.113Z,1.30
2023-01-22T05:54:40.213Z,1.30
2023-01-22T05:57:07.209Z,1.30
2023-01-22T05:59:34.237Z,1.20
2023-01-22T06:02:01.695Z,1.10
2023-01-22T06:04:28.657Z,1.20
2023-01-22T06:06:55.744Z,1.10
2023-01-22T06:09:22.729Z,1.00
2023-01-22T06:11:49.963Z,1.00
2023-01-22T06:14:16.909Z,1.00
2023-01-22T06:16:43.814Z,1.00
2023-01-22T06:19:10.870Z,1.00
2023-01-22T06:21:37.800Z,1.00
2023-01-22T06:24:04.750Z,1.00
2023-01-22T06:26:31.893Z,1.00
2023-01-22T06:28:58.901Z,1.00
2023-01-22T06:31:25.987Z,1.00
2023-01-22T06:33:53.758Z,1.00
2023-01-22T06:36:20.912Z,1.00
2023-01-22T06:38:47.807Z,1.00
2023-01-22T06:41:14.810Z,1.00
2023-01-22T06:43:41.699Z,1.00
2023-01-22T06:46:08.743Z,1.00
2023-01-22T06:48:37.300Z,1.00
2023-01-22T06:51:04.449Z,1.00
2023-01-22T06:53:31.472Z,1.00
2023-01-22T06:56:01.710Z,1.00
2023-01-22T06:58:31.892Z,1.10
2023-01-22T07:01:05.357Z,1.10
2023-01-22T07:03:32.658Z,1.10
2023-01-22T07:06:01.097Z,1.10
2023-01-22T07:08:28.937Z,1.00
2023-01-22T07:10:56.048Z,1.00
2023-01-22T07:13:23.074Z,1.00
2023-01-22T07:15:50.064Z,1.00
2023-01-22T07:18:20.019Z,1.10
2023-01-22T07:20:47.679Z,1.10
2023-01-22T07:23:14.549Z,1.10
2023-01-22T07:25:42.155Z,1.00
2023-01-22T07:28:09.053Z,1.00
2023-01-22T07:30:35.997Z,1.00
2023-01-22T07:33:03.556Z,1.00
2023-01-22T07:35:30.727Z,1.00
2023-01-22T07:37:58.824Z,1.00
2023-01-22T07:40:26.249Z,1.00
2023-01-22T07:42:53.775Z,1.00
2023-01-22T07:45:21.088Z,1.00
2023-01-22T09:10:51.417Z,1.60
2023-01-22T09:13:18.284Z,1.60
2023-01-22T09:15:45.146Z,1.60
2023-01-22T09:18:12.200Z,1.60
2023-01-22T09:20:39.037Z,1.60
2023-01-22T09:23:05.905Z,1.60
2023-01-22T09:25:32.790Z,1.70
2023-01-22T09:28:00.206Z,1.70
2023-01-22T09:30:30.365Z,1.70
2023-01-22T09:32:57.464Z,1.70
2023-01-22T09:35:24.635Z,1.80
2023-01-22T09:37:51.580Z,1.80
2023-01-22T09:40:26.112Z,1.80
2023-01-22T09:42:54.494Z,1.90
2023-01-22T09:45:24.269Z,1.90
2023-01-22T09:47:52.945Z,1.90
2023-01-22T09:50:20.428Z,2.00
2023-01-22T09:52:47.826Z,1.90
2023-01-22T09:55:19.452Z,2.00
2023-01-22T09:57:47.908Z,2.00
2023-01-22T10:00:21.817Z,2.00
2023-01-22T10:02:58.194Z,2.00
2023-01-22T10:05:30.780Z,2.10
2023-01-22T10:08:00.956Z,2.10
2023-01-22T10:10:28.450Z,2.10
2023-01-22T10:13:01.779Z,2.20
2023-01-22T10:15:28.711Z,2.20
2023-01-22T10:17:57.389Z,2.30
2023-01-22T10:20:25.034Z,2.40
2023-01-22T10:23:02.322Z,2.40
2023-01-22T10:25:29.280Z,2.40
2023-01-22T10:28:01.186Z,2.30
2023-01-22T10:30:29.212Z,2.30
2023-01-22T10:33:00.215Z,2.30
2023-01-22T10:35:27.351Z,2.30
2023-01-22T10:37:55.270Z,2.40
2023-01-22T10:40:32.713Z,2.40
2023-01-22T10:43:02.827Z,2.40
2023-01-22T10:45:29.985Z,2.30
2023-01-22T10:48:03.782Z,2.40
2023-01-22T10:50:30.729Z,2.40
2023-01-22T10:52:58.105Z,2.40
2023-01-22T10:55:29.503Z,2.40
2023-01-22T10:57:59.021Z,2.50
2023-01-22T11:00:39.792Z,2.50
2023-01-22T11:03:14.454Z,2.50
2023-01-22T11:05:44.274Z,2.40
2023-01-22T11:08:17.156Z,2.40
2023-01-22T11:10:55.661Z,2.40
2023-01-22T11:13:31.766Z,2.40
2023-01-22T11:16:11.218Z,2.50
2023-01-22T11:18:39.555Z,2.50
2023-01-22T11:21:24.163Z,2.50
2023-01-22T11:23:52.359Z,2.40
2023-01-22T11:26:38.117Z,2.50
2023-01-22T11:29:11.243Z,2.50
2023-01-22T11:31:50.502Z,2.50
2023-01-22T11:34:17.414Z,2.40
2023-01-22T11:37:03.031Z,2.50
2023-01-22T11:39:44.897Z,2.50
2023-01-22T11:42:22.697Z,2.60
2023-01-22T11:44:59.371Z,2.60
2023-01-22T11:47:41.535Z,2.60
2023-01-22T11:50:21.167Z,2.50
2023-01-22T11:52:51.340Z,2.50
2023-01-22T11:55:40.186Z,2.60
2023-01-22T11:58:13.017Z,2.60
2023-01-22T12:00:54.750Z,2.60
2023-01-22T12:03:45.269Z,2.60
2023-01-22T12:06:13.749Z,2.50
2023-01-22T12:08:48.404Z,2.60
2023-01-22T12:11:34.216Z,2.60
2023-01-22T12:14:12.088Z,2.70
2023-01-22T12:16:39.130Z,2.60
2023-01-22T12:19:06.046Z,2.70
2023-01-22T12:21:32.973Z,2.70
2023-01-22T12:24:04.767Z,2.70
2023-01-22T12:26:37.551Z,2.70
2023-01-22T12:29:13.390Z,2.70
2023-01-22T12:32:05.092Z,2.60
2023-01-22T12:34:34.848Z,2.70
2023-01-22T12:37:03.195Z,2.60
2023-01-22T12:39:41.815Z,2.70
2023-01-22T12:42:14.691Z,2.80
2023-01-22T12:45:10.947Z,2.70
2023-01-22T12:47:53.088Z,2.80
2023-01-22T12:50:22.547Z,2.80
2023-01-22T12:52:58.792Z,2.80
2023-01-22T12:55:30.869Z,2.80
2023-01-22T12:57:58.541Z,2.90
2023-01-22T13:00:34.975Z,2.90
2023-01-22T13:03:03.471Z,2.90
2023-01-22T13:05:30.411Z,2.90
2023-01-22T13:08:20.311Z,2.80
2023-01-22T13:10:53.453Z,2.80
2023-01-22T13:13:23.880Z,2.80
2023-01-22T13:15:52.894Z,2.80
2023-01-22T13:18:21.938Z,2.90
2023-01-22T13:20:54.032Z,2.90
2023-01-22T13:23:21.728Z,2.90
2023-01-22T13:25:53.340Z,2.90
2023-01-22T13:28:20.836Z,2.90
2023-01-22T13:30:57.734Z,2.90
2023-01-22T13:33:24.720Z,2.90
2023-01-22T13:35:51.639Z,2.90
2023-01-22T13:38:21.737Z,3.00
2023-01-22T13:40:51.637Z,3.00
2023-01-22T13:43:19.907Z,3.00
2023-01-22T13:45:46.928Z,3.00
2023-01-22T13:48:18.529Z,3.00
2023-01-22T13:50:59.057Z,3.00
2023-01-22T13:53:29.203Z,3.00
2023-01-22T13:55:56.315Z,3.00
2023-01-22T13:58:33.024Z,3.00
2023-01-22T14:01:05.956Z,3.00
2023-01-22T14:03:32.915Z,2.80
2023-01-22T14:06:08.008Z,2.90
2023-01-22T14:08:52.496Z,2.90
2023-01-22T14:11:19.890Z,2.90
2023-01-22T14:13:48.133Z,2.90
2023-01-22T14:16:15.625Z,3.00
2023-01-22T14:18:43.456Z,3.00
2023-01-22T14:21:10.303Z,3.00
2023-01-22T14:23:37.242Z,2.90
2023-01-22T14:26:06.025Z,2.70
2023-01-22T14:28:36.466Z,2.70
2023-01-22T14:31:03.528Z,2.80
2023-01-22T14:33:32.083Z,2.70
2023-01-22T14:35:59.359Z,2.70
2023-01-22T14:38:26.990Z,2.70
2023-01-22T14:40:54.031Z,2.70
2023-01-22T14:43:21.485Z,2.70
2023-01-22T14:45:48.410Z,2.70
2023-01-22T14:48:16.615Z,2.70
2023-01-22T14:50:43.934Z,2.70
2023-01-22T14:53:11.014Z,2.70
2023-01-22T14:55:37.931Z,2.80
2023-01-22T14:58:06.250Z,2.80
2023-01-22T15:00:33.512Z,2.70
2023-01-22T15:03:00.760Z,2.70
2023-01-22T15:05:27.893Z,2.70
2023-01-22T15:07:54.789Z,2.80
2023-01-22T15:10:21.876Z,2.80
2023-01-22T15:12:49.759Z,2.90
2023-01-22T15:15:18.890Z,2.90
2023-01-22T15:17:45.831Z,2.90
2023-01-22T15:20:12.824Z,2.90
2023-01-22T15:22:39.795Z,2.90
2023-01-22T15:25:07.080Z,2.90
2023-01-22T15:27:34.001Z,2.90
2023-01-22T15:30:00.910Z,2.90
2023-01-22T15:32:27.857Z,2.90
2023-01-22T15:34:54.770Z,3.00
2023-01-22T15:37:21.754Z,3.00
2023-01-22T15:39:48.702Z,2.90
2023-01-22T15:42:15.902Z,2.90
2023-01-22T15:44:43.007Z,2.90
2023-01-22T15:47:10.979Z,2.90
2023-01-22T15:49:38.177Z,2.90
2023-01-22T15:52:05.219Z,2.90
2023-01-22T15:54:32.240Z,2.80
2023-01-22T15:56:59.202Z,2.90
2023-01-22T15:59:26.264Z,2.90
2023-01-22T16:01:53.247Z,2.90
2023-01-22T16:04:20.210Z,2.80
2023-01-22T16:06:47.309Z,2.80
2023-01-22T16:09:14.232Z,2.80
2023-01-22T16:11:41.396Z,2.80
2023-01-22T16:14:08.444Z,2.80
2023-01-22T16:16:38.963Z,2.70
2023-01-22T16:19:07.081Z,2.70
2023-01-22T16:21:34.176Z,2.70
2023-01-22T16:24:09.235Z,2.70
2023-01-22T16:26:49.077Z,2.70
2023-01-22T16:29:24.794Z,2.70
2023-01-22T16:31:53.681Z,2.70
2023-01-22T16:34:23.659Z,2.80
2023-01-22T16:36:50.673Z,2.70
2023-01-22T16:39:18.913Z,2.60
2023-01-22T16:41:50.264Z,2.60
2023-01-22T16:44:18.677Z,2.60
2023-01-22T16:46:49.680Z,2.70
2023-01-22T16:49:18.494Z,2.70
2023-01-22T16:51:48.061Z,2.70
2023-01-22T16:54:18.263Z,2.70
2023-01-22T16:56:45.165Z,2.70
2023-01-22T16:59:12.246Z,2.70
2023-01-22T17:01:41.279Z,2.70
2023-01-22T17:04:08.857Z,2.70
2023-01-22T17:06:43.625Z,2.80
2023-01-22T17:09:18.202Z,2.80
2023-01-22T17:11:49.059Z,2.80
2023-01-22T17:14:17.938Z,2.80
2023-01-22T17:16:45.153Z,2.70
2023-01-22T17:19:12.390Z,2.80
2023-01-22T17:21:39.378Z,2.80
2023-01-22T17:24:06.645Z,2.80
2023-01-22T17:26:33.714Z,2.80
2023-01-22T17:29:00.597Z,2.90
2023-01-22T17:31:27.954Z,2.80
2023-01-22T17:33:55.728Z,2.80
2023-01-22T17:36:24.481Z,2.80
2023-01-22T17:38:52.289Z,2.80
2023-01-22T17:41:20.992Z,2.80
2023-01-22T17:43:52.228Z,2.80
2023-01-22T17:46:20.753Z,2.80
2023-01-22T17:48:48.443Z,2.70
2023-01-22T17:51:16.795Z,2.80
2023-01-22T17:53:44.766Z,2.80
2023-01-22T17:56:13.092Z,2.80
2023-01-22T17:58:44.411Z,2.80
2023-01-22T18:01:12.299Z,2.80
2023-01-22T18:03:39.940Z,2.80
2023-01-22T18:06:07.519Z,2.80
2023-01-22T18:08:36.590Z,2.80
2023-01-22T18:11:07.902Z,2.80
2023-01-22T18:13:35.071Z,2.80
2023-01-22T18:16:02.882Z,2.80
2023-01-22T18:18:29.858Z,2.90
2023-01-22T18:20:56.839Z,2.90
2023-01-22T18:23:23.976Z,2.90
2023-01-22T18:25:54.545Z,2.90
2023-01-22T18:28:21.937Z,2.90
2023-01-22T18:30:49.643Z,2.90
2023-01-22T18:33:19.023Z,2.90
2023-01-22T18:35:47.003Z,2.90
2023-01-22T18:38:14.152Z,2.90
2023-01-22T18:40:41.400Z,2.80
2023-01-22T18:43:11.656Z,2.80
2023-01-22T18:45:40.526Z,2.80
2023-01-22T18:48:08.364Z,2.80
2023-01-22T18:50:35.263Z,2.80
2023-01-22T18:53:02.397Z,2.90
2023-01-22T18:55:30.692Z,2.90
2023-01-22T18:58:29.533Z,2.80
2023-01-22T19:00:57.296Z,2.90
2023-01-22T19:03:24.889Z,2.90
2023-01-22T19:05:52.127Z,2.90
2023-01-22T19:08:19.160Z,2.90
2023-01-22T19:10:46.104Z,2.90
2023-01-22T19:13:13.065Z,3.00
2023-01-22T19:15:40.315Z,3.00
2023-01-22T19:18:08.459Z,2.90
2023-01-22T19:20:36.428Z,2.90
2023-01-22T19:23:04.130Z,2.80
2023-01-22T19:25:31.463Z,2.70
2023-01-22T19:27:58.496Z,2.70
2023-01-22T19:30:25.549Z,2.90
2023-01-22T19:32:53.206Z,3.10
2023-01-22T19:35:20.770Z,3.40
2023-01-22T19:37:47.965Z,3.50
2023-01-22T19:40:15.154Z,3.70
2023-01-22T19:42:46.467Z,3.80
2023-01-22T19:45:14.213Z,3.90
2023-01-22T19:47:41.270Z,3.90
2023-01-22T19:50:08.606Z,3.90
2023-01-22T19:52:35.541Z,4.00
2023-01-22T19:55:02.562Z,4.10
2023-01-22T19:57:30.479Z,4.20
2023-01-22T19:59:58.741Z,4.30
2023-01-22T20:02:25.998Z,4.20
2023-01-22T20:04:53.119Z,4.30
2023-01-22T20:07:21.713Z,4.30
2023-01-22T20:09:48.871Z,4.30
2023-01-22T20:12:18.296Z,4.30
2023-01-22T20:14:45.270Z,4.30
2023-01-22T20:17:16.999Z,4.30
2023-01-22T20:19:44.011Z,4.40
2023-01-22T20:22:11.264Z,4.30
2023-01-22T20:24:40.015Z,4.20
2023-01-22T20:27:07.681Z,4.10
2023-01-22T20:29:34.683Z,4.00
2023-01-22T20:32:01.825Z,4.00
2023-01-22T20:34:28.917Z,4.00
2023-01-22T20:36:56.009Z,3.90
2023-01-22T20:39:23.111Z,3.90
2023-01-22T20:41:50.216Z,3.90
2023-01-22T20:44:20.419Z,3.90
2023-01-22T20:46:48.981Z,4.10
2023-01-22T20:49:16.038Z,4.20
2023-01-22T20:51:43.194Z,4.20
2023-01-22T20:54:10.722Z,4.30
2023-01-22T20:56:37.773Z,4.30
2023-01-22T20:59:06.580Z,4.20
2023-01-22T21:01:34.156Z,4.10
2023-01-22T21:04:01.583Z,4.10
2023-01-22T21:06:30.069Z,4.00
2023-01-22T21:08:58.734Z,3.90
2023-01-22T21:11:26.392Z,3.80
2023-01-22T21:13:53.541Z,3.70
2023-01-22T21:16:26.583Z,3.60
2023-01-22T21:18:58.034Z,3.60
2023-01-22T21:21:25.064Z,3.60
2023-01-22T21:23:53.123Z,3.60
2023-01-22T21:26:23.066Z,3.70
2023-01-22T21:28:51.504Z,3.70
2023-01-22T21:31:22.573Z,3.60
2023-01-22T21:33:52.759Z,3.60
2023-01-22T21:36:20.031Z,3.70
2023-01-22T21:38:47.879Z,3.80
2023-01-22T21:41:21.395Z,3.90
2023-01-22T21:44:07.060Z,3.90
2023-01-22T21:46:38.801Z,3.90
2023-01-22T21:49:18.767Z,4.00
2023-01-22T21:51:51.030Z,4.00
2023-01-22T21:54:28.940Z,4.00
2023-01-22T21:56:56.622Z,4.00
2023-01-22T21:59:23.641Z,4.00
2023-01-22T22:01:52.454Z,4.00
2023-01-22T22:04:19.481Z,4.00
2023-01-22T22:06:46.449Z,3.90
2023-01-22T22:09:15.163Z,4.00
2023-01-22T22:11:42.589Z,3.90
2023-01-22T22:14:11.367Z,3.90
2023-01-22T22:16:38.431Z,3.90
2023-01-22T22:19:05.435Z,3.90
2023-01-22T22:21:32.387Z,3.90
2023-01-22T22:23:59.442Z,3.90
2023-01-22T22:26:26.546Z,3.90
2023-01-22T22:28:53.460Z,3.90
2023-01-22T22:31:20.696Z,3.90
2023-01-22T22:33:49.934Z,3.90
2023-01-22T22:36:17.937Z,3.90
2023-01-22T22:38:44.982Z,3.90
2023-01-22T22:41:13.535Z,3.80
2023-01-22T22:43:44.340Z,3.80
2023-01-22T22:46:18.904Z,3.70
2023-01-22T22:48:46.486Z,3.70
2023-01-22T22:51:15.319Z,3.70
2023-01-22T22:53:42.832Z,3.70
2023-01-22T22:56:11.241Z,3.70
2023-01-22T22:58:38.261Z,3.70
2023-01-22T23:01:09.188Z,3.70
2023-01-22T23:03:37.672Z,3.70
2023-01-22T23:06:08.479Z,3.70
2023-01-22T23:08:36.649Z,3.70
2023-01-22T23:11:04.790Z,3.60
2023-01-22T23:13:32.318Z,3.60
2023-01-22T23:16:03.162Z,3.60
2023-01-22T23:18:30.412Z,3.60
2023-01-22T23:20:57.404Z,3.60
2023-01-22T23:23:24.459Z,3.60
2023-01-22T23:25:51.473Z,3.60
2023-01-22T23:28:21.513Z,3.60
2023-01-22T23:30:49.899Z,3.60
2023-01-22T23:33:17.114Z,3.50
2023-01-22T23:35:44.204Z,3.50
2023-01-22T23:38:11.111Z,3.50
2023-01-22T23:40:38.121Z,3.50
2023-01-22T23:43:05.065Z,3.50
2023-01-22T23:45:32.068Z,3.60
2023-01-22T23:47:59.009Z,3.70
2023-01-22T23:50:25.995Z,3.60
2023-01-22T23:52:52.943Z,3.60
2023-01-22T23:55:19.887Z,3.60
2023-01-22T23:57:46.885Z,3.70
